Tinsdal — V2AJ2 — position and weather

sailwx.info

Track history (hours):
 
Tides and Currents Weather Stations Pressure Air Temp Water Temp Dewpoint Dewpoint Depression Visibility Wind Speed Wind Dir Waves Ship Positions

Tinsdal

Last reported at 2015-Mar-26 17:33 UTC. Time now 2015-Apr-02 03:14 UTC.
Position N 49°13' W 006°29'.

Length 90 m; draft 5.8 m.

Type: Cargo ship. MMSI: 305573000.

Date/timePositionNaut miles runAvg speedWind from/ knotsBaromVisibWave heightAir tempDewpointWater temp
2015-Mar-26 17:33N 49°13' W 006°29'284 7.5
2015-Mar-25 03:31N 53°33' W 003°27'9 9.6
2015-Mar-25 02:33N 53°31' W 003°12'8 7.8
2015-Mar-25 01:33N 53°27' W 003°02'6 5.6
2015-Mar-25 00:33N 53°21' W 002°58'2 2.2
2015-Mar-24 23:33N 53°19' W 002°57'4 3.5
2015-Mar-24 22:33N 53°17' W 002°52'5 4.7
2015-Mar-24 21:33N 53°20' W 002°46'0 0.0
2015-Mar-24 20:28N 53°20' W 002°46'0 0.0
2015-Mar-24 19:28N 53°20' W 002°46'0 0.0
2015-Mar-24 18:28N 53°20' W 002°46'0 0.0
2015-Mar-24 17:28N 53°20' W 002°46'0 0.0
2015-Mar-24 15:10N 53°20' W 002°46'0 0.0
2015-Mar-24 11:16N 53°20' W 002°46'0 0.0
2015-Mar-24 10:28N 53°20' W 002°46'0 0.0
2015-Mar-24 09:22N 53°20' W 002°46'0 0.0
2015-Mar-23 18:17N 53°20' W 002°46'1 1.9
2015-Mar-23 17:30N 53°19' W 002°45'6 5.9
2015-Mar-23 16:32N 53°18' W 002°55'2 2.3
2015-Mar-23 15:33N 53°20' W 002°57'3 3.1
2015-Mar-23 14:33N 53°23' W 002°59'2 1.9
2015-Mar-23 13:33N 53°24' W 003°00'2 2.0
2015-Mar-23 12:33N 53°22' W 002°59'4 4.1
2015-Mar-23 11:33N 53°26' W 003°01'1 0.8
2015-Mar-23 10:33N 53°27' W 003°01'0 0.1
2015-Mar-23 09:31N 53°27' W 003°01'0 0.0
2015-Mar-23 08:19N 53°27' W 003°01'0 0.0
2015-Mar-23 07:31N 53°27' W 003°01'0 0.0
2015-Mar-23 06:31N 53°27' W 003°01'0 0.0
2015-Mar-23 05:31N 53°27' W 003°01'0 0.0
2015-Mar-23 04:31N 53°27' W 003°01'0 0.0
2015-Mar-23 03:31N 53°27' W 003°01'0 0.0
2015-Mar-23 02:31N 53°27' W 003°01'0 0.0
2015-Mar-23 01:31N 53°27' W 003°01'0 0.0
2015-Mar-23 00:31N 53°27' W 003°01'0 0.0
2015-Mar-22 23:31N 53°27' W 003°01'0 0.0
2015-Mar-22 22:31N 53°27' W 003°01'0 0.0
2015-Mar-22 21:31N 53°27' W 003°01'0 0.0
2015-Mar-22 20:31N 53°27' W 003°01'0 0.0
2015-Mar-22 19:31N 53°27' W 003°01'0 0.2
2015-Mar-22 18:33N 53°27' W 003°01'0 0.2
2015-Mar-22 17:33N 53°27' W 003°01'2 2.0
2015-Mar-22 16:33N 53°28' W 003°04'6 5.9
2015-Mar-22 15:30N 53°31' W 003°13'9 2.7
2015-Mar-22 12:13N 53°29' W 003°27'0 0.0
2015-Mar-22 09:19N 53°29' W 003°27'0 0.0
2015-Mar-22 08:31N 53°29' W 003°27'0 0.0
2015-Mar-22 07:07N 53°29' W 003°27'  
Track history (hours):
 
Tides and Currents Weather Stations Pressure Air Temp Water Temp Dewpoint Dewpoint Depression Visibility Wind Speed Wind Dir Waves Ship Positions

Tinsdal

Last reported at 2015-Mar-26 17:33 UTC. Time now 2015-Apr-02 03:14 UTC.
Position N 49°13' W 006°29'.

Length 90 m; draft 5.8 m.

Type: Cargo ship. MMSI: 305573000.

Date/timePositionNaut miles runAvg speedWind from/ knotsBaromVisibWave heightAir tempDewpointWater temp
2015-Mar-26 17:33N 49°13' W 006°29'284 7.5
2015-Mar-25 03:31N 53°33' W 003°27'9 9.6
2015-Mar-25 02:33N 53°31' W 003°12'8 7.8
2015-Mar-25 01:33N 53°27' W 003°02'6 5.6
2015-Mar-25 00:33N 53°21' W 002°58'2 2.2
2015-Mar-24 23:33N 53°19' W 002°57'4 3.5
2015-Mar-24 22:33N 53°17' W 002°52'5 4.7
2015-Mar-24 21:33N 53°20' W 002°46'0 0.0
2015-Mar-24 20:28N 53°20' W 002°46'0 0.0
2015-Mar-24 19:28N 53°20' W 002°46'0 0.0
2015-Mar-24 18:28N 53°20' W 002°46'0 0.0
2015-Mar-24 17:28N 53°20' W 002°46'0 0.0
2015-Mar-24 15:10N 53°20' W 002°46'0 0.0
2015-Mar-24 11:16N 53°20' W 002°46'0 0.0
2015-Mar-24 10:28N 53°20' W 002°46'0 0.0
2015-Mar-24 09:22N 53°20' W 002°46'0 0.0
2015-Mar-23 18:17N 53°20' W 002°46'1 1.9
2015-Mar-23 17:30N 53°19' W 002°45'6 5.9
2015-Mar-23 16:32N 53°18' W 002°55'2 2.3
2015-Mar-23 15:33N 53°20' W 002°57'3 3.1
2015-Mar-23 14:33N 53°23' W 002°59'2 1.9
2015-Mar-23 13:33N 53°24' W 003°00'2 2.0
2015-Mar-23 12:33N 53°22' W 002°59'4 4.1
2015-Mar-23 11:33N 53°26' W 003°01'1 0.8
2015-Mar-23 10:33N 53°27' W 003°01'0 0.1
2015-Mar-23 09:31N 53°27' W 003°01'0 0.0
2015-Mar-23 08:19N 53°27' W 003°01'0 0.0
2015-Mar-23 07:31N 53°27' W 003°01'0 0.0
2015-Mar-23 06:31N 53°27' W 003°01'0 0.0
2015-Mar-23 05:31N 53°27' W 003°01'0 0.0
2015-Mar-23 04:31N 53°27' W 003°01'0 0.0
2015-Mar-23 03:31N 53°27' W 003°01'0 0.0
2015-Mar-23 02:31N 53°27' W 003°01'0 0.0
2015-Mar-23 01:31N 53°27' W 003°01'0 0.0
2015-Mar-23 00:31N 53°27' W 003°01'0 0.0
2015-Mar-22 23:31N 53°27' W 003°01'0 0.0
2015-Mar-22 22:31N 53°27' W 003°01'0 0.0
2015-Mar-22 21:31N 53°27' W 003°01'0 0.0
2015-Mar-22 20:31N 53°27' W 003°01'0 0.0
2015-Mar-22 19:31N 53°27' W 003°01'0 0.2
2015-Mar-22 18:33N 53°27' W 003°01'0 0.2
2015-Mar-22 17:33N 53°27' W 003°01'2 2.0
2015-Mar-22 16:33N 53°28' W 003°04'6 5.9
2015-Mar-22 15:30N 53°31' W 003°13'9 2.7
2015-Mar-22 12:13N 53°29' W 003°27'0 0.0
2015-Mar-22 09:19N 53°29' W 003°27'0 0.0
2015-Mar-22 08:31N 53°29' W 003°27'0 0.0
2015-Mar-22 07:07N 53°29' W 003°27'  

Dump ship's entire track history